sensor_id;sensor_type;location;lat;lon;timestamp;P1;durP1;ratioP1;P2;durP2;ratioP2
56670;SDS011;42545;50.054;8.306;2022-08-21T00:00:26;1.70;;;1.45;;
56670;SDS011;42545;50.054;8.306;2022-08-21T00:02:54;2.30;;;1.45;;
56670;SDS011;42545;50.054;8.306;2022-08-21T00:05:22;2.20;;;1.63;;
56670;SDS011;42545;50.054;8.306;2022-08-21T00:07:50;2.55;;;1.60;;
56670;SDS011;42545;50.054;8.306;2022-08-21T00:10:19;1.73;;;1.40;;
56670;SDS011;42545;50.054;8.306;2022-08-21T00:12:46;1.70;;;1.45;;
56670;SDS011;42545;50.054;8.306;2022-08-21T00:15:15;2.70;;;1.30;;
56670;SDS011;42545;50.054;8.306;2022-08-21T00:17:43;2.17;;;1.30;;
56670;SDS011;42545;50.054;8.306;2022-08-21T00:20:11;2.08;;;1.58;;
56670;SDS011;42545;50.054;8.306;2022-08-21T00:22:40;2.63;;;2.10;;
56670;SDS011;42545;50.054;8.306;2022-08-21T00:25:07;5.32;;;3.63;;
56670;SDS011;42545;50.054;8.306;2022-08-21T00:27:37;4.65;;;3.30;;
56670;SDS011;42545;50.054;8.306;2022-08-21T00:30:05;8.55;;;4.72;;
56670;SDS011;42545;50.054;8.306;2022-08-21T00:32:33;8.77;;;4.50;;
56670;SDS011;42545;50.054;8.306;2022-08-21T00:35:03;5.53;;;3.53;;
56670;SDS011;42545;50.054;8.306;2022-08-21T00:37:30;3.75;;;2.90;;
56670;SDS011;42545;50.054;8.306;2022-08-21T00:39:57;4.88;;;3.33;;
56670;SDS011;42545;50.054;8.306;2022-08-21T00:42:24;3.75;;;2.97;;
56670;SDS011;42545;50.054;8.306;2022-08-21T00:44:53;5.28;;;3.30;;
56670;SDS011;42545;50.054;8.306;2022-08-21T00:47:19;4.15;;;2.90;;
56670;SDS011;42545;50.054;8.306;2022-08-21T00:49:46;3.03;;;2.40;;
56670;SDS011;42545;50.054;8.306;2022-08-21T00:52:14;3.00;;;2.40;;
56670;SDS011;42545;50.054;8.306;2022-08-21T00:54:46;4.45;;;2.20;;
56670;SDS011;42545;50.054;8.306;2022-08-21T00:57:15;4.43;;;2.53;;
56670;SDS011;42545;50.054;8.306;2022-08-21T00:59:46;3.70;;;2.72;;
56670;SDS011;42545;50.054;8.306;2022-08-21T01:04:45;2.50;;;2.13;;
56670;SDS011;42545;50.054;8.306;2022-08-21T01:07:12;3.88;;;2.83;;
56670;SDS011;42545;50.054;8.306;2022-08-21T01:09:40;5.65;;;3.85;;
56670;SDS011;42545;50.054;8.306;2022-08-21T01:12:07;5.78;;;3.83;;
56670;SDS011;42545;50.054;8.306;2022-08-21T01:14:35;4.18;;;3.15;;
56670;SDS011;42545;50.054;8.306;2022-08-21T01:17:02;4.75;;;2.65;;
56670;SDS011;42545;50.054;8.306;2022-08-21T01:19:31;4.32;;;2.60;;
56670;SDS011;42545;50.054;8.306;2022-08-21T01:22:00;4.22;;;2.60;;
56670;SDS011;42545;50.054;8.306;2022-08-21T01:24:27;4.35;;;2.30;;
56670;SDS011;42545;50.054;8.306;2022-08-21T01:26:56;3.85;;;2.60;;
56670;SDS011;42545;50.054;8.306;2022-08-21T01:29:28;4.70;;;2.80;;
56670;SDS011;42545;50.054;8.306;2022-08-21T01:31:59;5.40;;;2.53;;
56670;SDS011;42545;50.054;8.306;2022-08-21T01:34:30;3.72;;;2.33;;
56670;SDS011;42545;50.054;8.306;2022-08-21T01:37:01;4.20;;;2.53;;
56670;SDS011;42545;50.054;8.306;2022-08-21T01:39:29;6.20;;;2.60;;
56670;SDS011;42545;50.054;8.306;2022-08-21T01:41:56;4.55;;;2.35;;
56670;SDS011;42545;50.054;8.306;2022-08-21T01:44:23;3.25;;;1.98;;
56670;SDS011;42545;50.054;8.306;2022-08-21T01:46:52;2.80;;;1.90;;
56670;SDS011;42545;50.054;8.306;2022-08-21T01:49:20;2.90;;;2.22;;
56670;SDS011;42545;50.054;8.306;2022-08-21T01:51:47;6.05;;;2.50;;
56670;SDS011;42545;50.054;8.306;2022-08-21T01:54:15;4.53;;;2.50;;
56670;SDS011;42545;50.054;8.306;2022-08-21T01:56:43;3.95;;;2.58;;
56670;SDS011;42545;50.054;8.306;2022-08-21T01:59:12;3.28;;;2.30;;
56670;SDS011;42545;50.054;8.306;2022-08-21T02:01:39;2.50;;;1.90;;
56670;SDS011;42545;50.054;8.306;2022-08-21T02:04:07;2.78;;;1.88;;
56670;SDS011;42545;50.054;8.306;2022-08-21T02:06:34;7.20;;;2.33;;
56670;SDS011;42545;50.054;8.306;2022-08-21T02:09:02;3.40;;;2.42;;
56670;SDS011;42545;50.054;8.306;2022-08-21T02:11:32;4.13;;;2.10;;
56670;SDS011;42545;50.054;8.306;2022-08-21T02:13:59;2.72;;;1.77;;
56670;SDS011;42545;50.054;8.306;2022-08-21T02:16:27;2.67;;;1.90;;
56670;SDS011;42545;50.054;8.306;2022-08-21T02:18:54;2.45;;;1.63;;
56670;SDS011;42545;50.054;8.306;2022-08-21T02:21:21;3.33;;;2.10;;
56670;SDS011;42545;50.054;8.306;2022-08-21T02:23:47;3.83;;;2.25;;
56670;SDS011;42545;50.054;8.306;2022-08-21T02:26:14;3.10;;;2.03;;
56670;SDS011;42545;50.054;8.306;2022-08-21T02:28:42;3.55;;;2.17;;
56670;SDS011;42545;50.054;8.306;2022-08-21T02:31:10;2.10;;;1.80;;
56670;SDS011;42545;50.054;8.306;2022-08-21T02:33:37;3.47;;;2.28;;
56670;SDS011;42545;50.054;8.306;2022-08-21T02:36:05;2.97;;;2.05;;
56670;SDS011;42545;50.054;8.306;2022-08-21T02:38:33;2.67;;;2.00;;
56670;SDS011;42545;50.054;8.306;2022-08-21T02:43:30;3.50;;;2.22;;
56670;SDS011;42545;50.054;8.306;2022-08-21T02:45:59;7.53;;;4.18;;
56670;SDS011;42545;50.054;8.306;2022-08-21T02:48:27;5.57;;;3.55;;
56670;SDS011;42545;50.054;8.306;2022-08-21T02:53:26;8.83;;;3.40;;
56670;SDS011;42545;50.054;8.306;2022-08-21T02:55:53;4.43;;;3.50;;
56670;SDS011;42545;50.054;8.306;2022-08-21T02:58:21;4.28;;;3.15;;
56670;SDS011;42545;50.054;8.306;2022-08-21T03:00:50;4.13;;;3.05;;
56670;SDS011;42545;50.054;8.306;2022-08-21T03:03:19;3.40;;;2.47;;
56670;SDS011;42545;50.054;8.306;2022-08-21T03:05:46;3.22;;;2.45;;
56670;SDS011;42545;50.054;8.306;2022-08-21T03:08:14;3.28;;;2.70;;
56670;SDS011;42545;50.054;8.306;2022-08-21T03:10:42;3.65;;;2.40;;
56670;SDS011;42545;50.054;8.306;2022-08-21T03:13:10;3.15;;;2.28;;
56670;SDS011;42545;50.054;8.306;2022-08-21T03:15:37;3.47;;;2.25;;
56670;SDS011;42545;50.054;8.306;2022-08-21T03:18:05;3.28;;;2.47;;
56670;SDS011;42545;50.054;8.306;2022-08-21T03:20:35;4.03;;;3.00;;
56670;SDS011;42545;50.054;8.306;2022-08-21T03:23:03;3.70;;;2.75;;
56670;SDS011;42545;50.054;8.306;2022-08-21T03:25:31;3.22;;;2.53;;
56670;SDS011;42545;50.054;8.306;2022-08-21T03:27:59;2.65;;;2.30;;
56670;SDS011;42545;50.054;8.306;2022-08-21T03:30:26;4.53;;;3.03;;
56670;SDS011;42545;50.054;8.306;2022-08-21T03:32:52;3.25;;;2.40;;
56670;SDS011;42545;50.054;8.306;2022-08-21T03:35:19;2.60;;;2.10;;
56670;SDS011;42545;50.054;8.306;2022-08-21T03:37:50;2.75;;;2.03;;
56670;SDS011;42545;50.054;8.306;2022-08-21T03:40:18;2.83;;;1.90;;
56670;SDS011;42545;50.054;8.306;2022-08-21T03:42:47;2.50;;;2.30;;
56670;SDS011;42545;50.054;8.306;2022-08-21T03:45:14;3.53;;;2.95;;
56670;SDS011;42545;50.054;8.306;2022-08-21T03:47:50;7.45;;;4.28;;
56670;SDS011;42545;50.054;8.306;2022-08-21T03:50:19;8.00;;;4.93;;
56670;SDS011;42545;50.054;8.306;2022-08-21T03:52:46;8.10;;;5.25;;
56670;SDS011;42545;50.054;8.306;2022-08-21T03:55:14;8.35;;;5.68;;
56670;SDS011;42545;50.054;8.306;2022-08-21T03:57:41;8.88;;;5.50;;
56670;SDS011;42545;50.054;8.306;2022-08-21T04:00:09;5.82;;;4.15;;
56670;SDS011;42545;50.054;8.306;2022-08-21T04:02:38;5.40;;;3.50;;
56670;SDS011;42545;50.054;8.306;2022-08-21T04:05:06;6.07;;;3.55;;
56670;SDS011;42545;50.054;8.306;2022-08-21T04:07:34;4.88;;;3.25;;
56670;SDS011;42545;50.054;8.306;2022-08-21T04:10:01;4.72;;;2.90;;
56670;SDS011;42545;50.054;8.306;2022-08-21T04:12:29;3.70;;;2.60;;
56670;SDS011;42545;50.054;8.306;2022-08-21T04:14:56;3.83;;;2.40;;
56670;SDS011;42545;50.054;8.306;2022-08-21T04:17:22;3.55;;;2.40;;
56670;SDS011;42545;50.054;8.306;2022-08-21T04:19:49;3.30;;;2.22;;
56670;SDS011;42545;50.054;8.306;2022-08-21T04:22:16;3.28;;;2.42;;
56670;SDS011;42545;50.054;8.306;2022-08-21T04:24:43;3.70;;;2.53;;
56670;SDS011;42545;50.054;8.306;2022-08-21T04:27:11;4.53;;;2.45;;
56670;SDS011;42545;50.054;8.306;2022-08-21T04:29:39;4.15;;;2.90;;
56670;SDS011;42545;50.054;8.306;2022-08-21T04:32:06;4.88;;;3.28;;
56670;SDS011;42545;50.054;8.306;2022-08-21T04:34:33;3.97;;;2.90;;
56670;SDS011;42545;50.054;8.306;2022-08-21T04:37:00;5.03;;;3.08;;
56670;SDS011;42545;50.054;8.306;2022-08-21T04:39:26;4.68;;;3.30;;
56670;SDS011;42545;50.054;8.306;2022-08-21T04:41:54;4.00;;;2.53;;
56670;SDS011;42545;50.054;8.306;2022-08-21T04:44:21;4.72;;;3.40;;
56670;SDS011;42545;50.054;8.306;2022-08-21T04:46:50;4.55;;;3.00;;
56670;SDS011;42545;50.054;8.306;2022-08-21T04:49:17;5.13;;;3.65;;
56670;SDS011;42545;50.054;8.306;2022-08-21T04:51:44;4.80;;;3.55;;
56670;SDS011;42545;50.054;8.306;2022-08-21T04:54:12;5.15;;;3.50;;
56670;SDS011;42545;50.054;8.306;2022-08-21T04:56:43;6.50;;;4.13;;
56670;SDS011;42545;50.054;8.306;2022-08-21T04:59:14;5.38;;;3.60;;
56670;SDS011;42545;50.054;8.306;2022-08-21T05:01:44;5.80;;;3.67;;
56670;SDS011;42545;50.054;8.306;2022-08-21T05:04:14;5.55;;;3.38;;
56670;SDS011;42545;50.054;8.306;2022-08-21T05:06:44;4.72;;;3.25;;
56670;SDS011;42545;50.054;8.306;2022-08-21T05:09:13;3.55;;;2.72;;
56670;SDS011;42545;50.054;8.306;2022-08-21T05:11:42;5.05;;;3.30;;
56670;SDS011;42545;50.054;8.306;2022-08-21T05:14:10;3.97;;;2.60;;
56670;SDS011;42545;50.054;8.306;2022-08-21T05:16:37;3.53;;;2.50;;
56670;SDS011;42545;50.054;8.306;2022-08-21T05:19:05;2.70;;;2.40;;
56670;SDS011;42545;50.054;8.306;2022-08-21T05:21:34;3.47;;;2.40;;
56670;SDS011;42545;50.054;8.306;2022-08-21T05:24:03;3.03;;;2.30;;
56670;SDS011;42545;50.054;8.306;2022-08-21T05:26:30;8.30;;;3.65;;
56670;SDS011;42545;50.054;8.306;2022-08-21T05:28:58;5.22;;;3.47;;
56670;SDS011;42545;50.054;8.306;2022-08-21T05:31:25;7.78;;;4.05;;
56670;SDS011;42545;50.054;8.306;2022-08-21T05:33:52;6.63;;;3.28;;
56670;SDS011;42545;50.054;8.306;2022-08-21T05:36:19;5.85;;;3.47;;
56670;SDS011;42545;50.054;8.306;2022-08-21T05:38:47;5.60;;;3.08;;
56670;SDS011;42545;50.054;8.306;2022-08-21T05:41:14;3.72;;;2.67;;
56670;SDS011;42545;50.054;8.306;2022-08-21T05:43:41;3.92;;;2.60;;
56670;SDS011;42545;50.054;8.306;2022-08-21T05:46:08;4.13;;;2.55;;
56670;SDS011;42545;50.054;8.306;2022-08-21T05:48:35;4.07;;;2.42;;
56670;SDS011;42545;50.054;8.306;2022-08-21T05:51:04;4.28;;;2.90;;
56670;SDS011;42545;50.054;8.306;2022-08-21T05:53:32;5.40;;;2.93;;
56670;SDS011;42545;50.054;8.306;2022-08-21T05:56:01;5.82;;;3.55;;
56670;SDS011;42545;50.054;8.306;2022-08-21T05:58:29;3.95;;;2.95;;
56670;SDS011;42545;50.054;8.306;2022-08-21T06:00:59;6.88;;;3.17;;
56670;SDS011;42545;50.054;8.306;2022-08-21T06:03:28;3.40;;;2.60;;
56670;SDS011;42545;50.054;8.306;2022-08-21T06:05:57;4.03;;;2.60;;
56670;SDS011;42545;50.054;8.306;2022-08-21T06:08:25;7.07;;;3.00;;
56670;SDS011;42545;50.054;8.306;2022-08-21T06:10:52;5.47;;;3.38;;
56670;SDS011;42545;50.054;8.306;2022-08-21T06:13:22;4.35;;;2.55;;
56670;SDS011;42545;50.054;8.306;2022-08-21T06:15:59;4.03;;;2.53;;
56670;SDS011;42545;50.054;8.306;2022-08-21T06:18:28;6.88;;;3.10;;
56670;SDS011;42545;50.054;8.306;2022-08-21T06:20:58;4.03;;;2.70;;
56670;SDS011;42545;50.054;8.306;2022-08-21T06:23:25;3.47;;;2.17;;
56670;SDS011;42545;50.054;8.306;2022-08-21T06:25:52;4.15;;;2.35;;
56670;SDS011;42545;50.054;8.306;2022-08-21T06:28:19;5.75;;;3.50;;
56670;SDS011;42545;50.054;8.306;2022-08-21T06:30:48;4.35;;;2.47;;
56670;SDS011;42545;50.054;8.306;2022-08-21T06:33:14;4.22;;;2.90;;
56670;SDS011;42545;50.054;8.306;2022-08-21T06:35:41;3.03;;;2.47;;
56670;SDS011;42545;50.054;8.306;2022-08-21T06:38:08;3.67;;;2.25;;
56670;SDS011;42545;50.054;8.306;2022-08-21T06:40:35;6.13;;;2.95;;
56670;SDS011;42545;50.054;8.306;2022-08-21T06:43:07;4.45;;;2.30;;
56670;SDS011;42545;50.054;8.306;2022-08-21T06:45:35;4.30;;;2.65;;
56670;SDS011;42545;50.054;8.306;2022-08-21T06:48:03;5.20;;;3.28;;
56670;SDS011;42545;50.054;8.306;2022-08-21T06:50:31;6.47;;;2.70;;
56670;SDS011;42545;50.054;8.306;2022-08-21T06:53:00;3.58;;;2.20;;
56670;SDS011;42545;50.054;8.306;2022-08-21T06:55:28;5.95;;;2.80;;
56670;SDS011;42545;50.054;8.306;2022-08-21T06:57:55;4.90;;;3.05;;
56670;SDS011;42545;50.054;8.306;2022-08-21T07:00:22;4.38;;;2.80;;
56670;SDS011;42545;50.054;8.306;2022-08-21T07:02:49;3.30;;;2.60;;
56670;SDS011;42545;50.054;8.306;2022-08-21T07:05:18;4.32;;;3.00;;
56670;SDS011;42545;50.054;8.306;2022-08-21T07:07:45;5.20;;;3.10;;
56670;SDS011;42545;50.054;8.306;2022-08-21T07:10:12;7.90;;;3.70;;
56670;SDS011;42545;50.054;8.306;2022-08-21T07:12:40;4.10;;;2.78;;
56670;SDS011;42545;50.054;8.306;2022-08-21T07:15:07;5.88;;;2.88;;
56670;SDS011;42545;50.054;8.306;2022-08-21T07:17:35;6.63;;;3.15;;
56670;SDS011;42545;50.054;8.306;2022-08-21T07:20:02;6.90;;;3.67;;
56670;SDS011;42545;50.054;8.306;2022-08-21T07:22:31;4.38;;;3.05;;
56670;SDS011;42545;50.054;8.306;2022-08-21T07:24:59;9.52;;;4.10;;
56670;SDS011;42545;50.054;8.306;2022-08-21T07:27:26;4.88;;;3.10;;
56670;SDS011;42545;50.054;8.306;2022-08-21T07:29:53;4.35;;;2.92;;
56670;SDS011;42545;50.054;8.306;2022-08-21T07:32:20;7.88;;;3.53;;
56670;SDS011;42545;50.054;8.306;2022-08-21T07:34:47;5.32;;;3.05;;
56670;SDS011;42545;50.054;8.306;2022-08-21T07:43:59;5.40;;;3.50;;
56670;SDS011;42545;50.054;8.306;2022-08-21T07:46:26;8.05;;;3.50;;
56670;SDS011;42545;50.054;8.306;2022-08-21T07:48:54;6.28;;;2.97;;
56670;SDS011;42545;50.054;8.306;2022-08-21T07:51:22;6.13;;;3.00;;
56670;SDS011;42545;50.054;8.306;2022-08-21T07:53:53;5.63;;;3.15;;
56670;SDS011;42545;50.054;8.306;2022-08-21T08:05:35;5.10;;;3.60;;
56670;SDS011;42545;50.054;8.306;2022-08-21T08:11:24;12.65;;;4.85;;
56670;SDS011;42545;50.054;8.306;2022-08-21T08:13:52;10.73;;;4.38;;
56670;SDS011;42545;50.054;8.306;2022-08-21T08:23:04;5.03;;;3.05;;
56670;SDS011;42545;50.054;8.306;2022-08-21T08:25:31;5.07;;;3.15;;
56670;SDS011;42545;50.054;8.306;2022-08-21T08:27:58;4.95;;;3.25;;
56670;SDS011;42545;50.054;8.306;2022-08-21T08:30:25;8.15;;;4.10;;
56670;SDS011;42545;50.054;8.306;2022-08-21T08:32:52;6.30;;;3.50;;
56670;SDS011;42545;50.054;8.306;2022-08-21T08:35:19;9.98;;;5.03;;
56670;SDS011;42545;50.054;8.306;2022-08-21T08:37:46;7.25;;;4.00;;
56670;SDS011;42545;50.054;8.306;2022-08-21T08:40:18;8.80;;;4.57;;
56670;SDS011;42545;50.054;8.306;2022-08-21T08:42:48;12.55;;;5.10;;
56670;SDS011;42545;50.054;8.306;2022-08-21T08:45:16;7.03;;;3.90;;
56670;SDS011;42545;50.054;8.306;2022-08-21T08:47:47;7.68;;;4.57;;
56670;SDS011;42545;50.054;8.306;2022-08-21T08:50:22;10.57;;;4.75;;
56670;SDS011;42545;50.054;8.306;2022-08-21T08:53:07;6.18;;;3.42;;
56670;SDS011;42545;50.054;8.306;2022-08-21T08:55:43;5.07;;;3.30;;
56670;SDS011;42545;50.054;8.306;2022-08-21T08:58:16;6.50;;;3.67;;
56670;SDS011;42545;50.054;8.306;2022-08-21T09:00:46;7.65;;;3.53;;
56670;SDS011;42545;50.054;8.306;2022-08-21T09:03:15;8.27;;;3.88;;
56670;SDS011;42545;50.054;8.306;2022-08-21T09:05:44;6.00;;;2.97;;
56670;SDS011;42545;50.054;8.306;2022-08-21T09:08:20;7.63;;;3.33;;
56670;SDS011;42545;50.054;8.306;2022-08-21T09:11:19;9.57;;;3.92;;
56670;SDS011;42545;50.054;8.306;2022-08-21T09:13:56;6.25;;;3.20;;
56670;SDS011;42545;50.054;8.306;2022-08-21T09:16:39;3.97;;;2.80;;
56670;SDS011;42545;50.054;8.306;2022-08-21T09:19:15;11.77;;;3.35;;
56670;SDS011;42545;50.054;8.306;2022-08-21T09:22:03;6.53;;;3.45;;
56670;SDS011;42545;50.054;8.306;2022-08-21T09:24:39;8.05;;;4.15;;
56670;SDS011;42545;50.054;8.306;2022-08-21T09:27:17;5.88;;;3.42;;
56670;SDS011;42545;50.054;8.306;2022-08-21T09:29:46;7.07;;;3.63;;
56670;SDS011;42545;50.054;8.306;2022-08-21T09:32:18;7.85;;;3.38;;
56670;SDS011;42545;50.054;8.306;2022-08-21T09:34:57;8.70;;;3.63;;
56670;SDS011;42545;50.054;8.306;2022-08-21T09:37:26;6.45;;;3.33;;
56670;SDS011;42545;50.054;8.306;2022-08-21T09:39:55;5.95;;;3.20;;
56670;SDS011;42545;50.054;8.306;2022-08-21T09:42:26;6.55;;;3.80;;
56670;SDS011;42545;50.054;8.306;2022-08-21T09:45:09;7.47;;;3.60;;
56670;SDS011;42545;50.054;8.306;2022-08-21T09:47:39;7.88;;;3.15;;
56670;SDS011;42545;50.054;8.306;2022-08-21T09:50:07;7.28;;;3.70;;
56670;SDS011;42545;50.054;8.306;2022-08-21T09:52:42;8.02;;;3.00;;
56670;SDS011;42545;50.054;8.306;2022-08-21T09:55:15;6.63;;;3.13;;
56670;SDS011;42545;50.054;8.306;2022-08-21T09:58:03;6.53;;;3.20;;
56670;SDS011;42545;50.054;8.306;2022-08-21T10:00:33;8.40;;;3.35;;
56670;SDS011;42545;50.054;8.306;2022-08-21T10:03:07;4.18;;;2.40;;
56670;SDS011;42545;50.054;8.306;2022-08-21T10:05:36;8.75;;;3.13;;
56670;SDS011;42545;50.054;8.306;2022-08-21T10:08:03;7.55;;;3.13;;
56670;SDS011;42545;50.054;8.306;2022-08-21T10:10:31;4.85;;;2.85;;
56670;SDS011;42545;50.054;8.306;2022-08-21T10:13:06;5.32;;;2.60;;
56670;SDS011;42545;50.054;8.306;2022-08-21T10:15:47;4.07;;;2.53;;
56670;SDS011;42545;50.054;8.306;2022-08-21T10:18:20;5.73;;;2.97;;
56670;SDS011;42545;50.054;8.306;2022-08-21T10:20:52;4.15;;;2.60;;
56670;SDS011;42545;50.054;8.306;2022-08-21T10:23:34;5.20;;;2.72;;
56670;SDS011;42545;50.054;8.306;2022-08-21T10:26:15;4.40;;;2.60;;
56670;SDS011;42545;50.054;8.306;2022-08-21T10:29:00;6.88;;;3.17;;
56670;SDS011;42545;50.054;8.306;2022-08-21T10:31:36;6.15;;;3.13;;
56670;SDS011;42545;50.054;8.306;2022-08-21T10:34:20;6.10;;;3.00;;
56670;SDS011;42545;50.054;8.306;2022-08-21T10:37:01;8.40;;;3.10;;
56670;SDS011;42545;50.054;8.306;2022-08-21T10:39:39;6.25;;;2.78;;
56670;SDS011;42545;50.054;8.306;2022-08-21T10:42:18;6.85;;;2.95;;
56670;SDS011;42545;50.054;8.306;2022-08-21T10:44:56;4.75;;;2.60;;
56670;SDS011;42545;50.054;8.306;2022-08-21T10:47:32;4.90;;;2.65;;
56670;SDS011;42545;50.054;8.306;2022-08-21T10:50:08;7.15;;;3.20;;
56670;SDS011;42545;50.054;8.306;2022-08-21T10:52:44;5.88;;;3.22;;
56670;SDS011;42545;50.054;8.306;2022-08-21T10:55:21;5.63;;;2.80;;
56670;SDS011;42545;50.054;8.306;2022-08-21T10:57:50;5.22;;;2.80;;
56670;SDS011;42545;50.054;8.306;2022-08-21T11:00:23;5.82;;;3.05;;
56670;SDS011;42545;50.054;8.306;2022-08-21T11:02:56;6.57;;;2.80;;
56670;SDS011;42545;50.054;8.306;2022-08-21T11:05:29;9.68;;;5.20;;
56670;SDS011;42545;50.054;8.306;2022-08-21T11:08:02;6.78;;;3.10;;
56670;SDS011;42545;50.054;8.306;2022-08-21T11:10:33;7.53;;;3.10;;
56670;SDS011;42545;50.054;8.306;2022-08-21T11:13:17;3.88;;;2.47;;
56670;SDS011;42545;50.054;8.306;2022-08-21T11:15:52;5.82;;;2.90;;
56670;SDS011;42545;50.054;8.306;2022-08-21T11:18:26;5.60;;;2.92;;
56670;SDS011;42545;50.054;8.306;2022-08-21T11:21:06;5.07;;;2.55;;
56670;SDS011;42545;50.054;8.306;2022-08-21T11:23:47;6.35;;;2.83;;
56670;SDS011;42545;50.054;8.306;2022-08-21T11:26:21;6.97;;;2.83;;
56670;SDS011;42545;50.054;8.306;2022-08-21T11:28:58;5.85;;;2.83;;
56670;SDS011;42545;50.054;8.306;2022-08-21T11:31:35;6.53;;;3.00;;
56670;SDS011;42545;50.054;8.306;2022-08-21T11:34:16;9.60;;;3.20;;
56670;SDS011;42545;50.054;8.306;2022-08-21T11:36:59;8.65;;;2.80;;
56670;SDS011;42545;50.054;8.306;2022-08-21T11:39:33;6.15;;;2.40;;
56670;SDS011;42545;50.054;8.306;2022-08-21T11:42:14;5.30;;;2.75;;
56670;SDS011;42545;50.054;8.306;2022-08-21T11:45:01;5.82;;;2.67;;
56670;SDS011;42545;50.054;8.306;2022-08-21T11:47:45;4.15;;;2.75;;
56670;SDS011;42545;50.054;8.306;2022-08-21T11:50:21;7.18;;;3.00;;
56670;SDS011;42545;50.054;8.306;2022-08-21T11:52:53;7.78;;;3.20;;
56670;SDS011;42545;50.054;8.306;2022-08-21T11:55:26;6.68;;;2.70;;
56670;SDS011;42545;50.054;8.306;2022-08-21T11:57:57;5.22;;;2.40;;
56670;SDS011;42545;50.054;8.306;2022-08-21T12:00:30;4.82;;;2.28;;
56670;SDS011;42545;50.054;8.306;2022-08-21T12:03:11;6.13;;;3.08;;
56670;SDS011;42545;50.054;8.306;2022-08-21T12:05:44;4.10;;;2.60;;
56670;SDS011;42545;50.054;8.306;2022-08-21T12:08:26;6.22;;;2.85;;
56670;SDS011;42545;50.054;8.306;2022-08-21T12:11:01;5.32;;;2.72;;
56670;SDS011;42545;50.054;8.306;2022-08-21T12:13:31;5.07;;;2.17;;
56670;SDS011;42545;50.054;8.306;2022-08-21T12:16:05;4.30;;;1.90;;
56670;SDS011;42545;50.054;8.306;2022-08-21T12:18:39;3.92;;;2.22;;
56670;SDS011;42545;50.054;8.306;2022-08-21T12:21:16;5.55;;;2.70;;
56670;SDS011;42545;50.054;8.306;2022-08-21T12:23:47;4.10;;;2.20;;
56670;SDS011;42545;50.054;8.306;2022-08-21T12:26:26;3.83;;;2.10;;
56670;SDS011;42545;50.054;8.306;2022-08-21T12:29:12;4.00;;;2.00;;
56670;SDS011;42545;50.054;8.306;2022-08-21T12:31:49;3.25;;;1.90;;
56670;SDS011;42545;50.054;8.306;2022-08-21T12:34:25;5.60;;;2.28;;
56670;SDS011;42545;50.054;8.306;2022-08-21T12:36:58;5.43;;;2.70;;
56670;SDS011;42545;50.054;8.306;2022-08-21T12:39:29;6.65;;;2.60;;
56670;SDS011;42545;50.054;8.306;2022-08-21T12:42:00;5.97;;;2.42;;
56670;SDS011;42545;50.054;8.306;2022-08-21T12:44:36;5.78;;;2.40;;
56670;SDS011;42545;50.054;8.306;2022-08-21T12:47:13;4.50;;;2.22;;
56670;SDS011;42545;50.054;8.306;2022-08-21T12:49:45;3.33;;;2.05;;
56670;SDS011;42545;50.054;8.306;2022-08-21T12:52:21;5.07;;;2.70;;
56670;SDS011;42545;50.054;8.306;2022-08-21T12:54:50;4.43;;;2.30;;
56670;SDS011;42545;50.054;8.306;2022-08-21T12:57:19;4.20;;;2.28;;
56670;SDS011;42545;50.054;8.306;2022-08-21T12:59:51;4.45;;;2.22;;
56670;SDS011;42545;50.054;8.306;2022-08-21T13:02:21;4.32;;;2.30;;
56670;SDS011;42545;50.054;8.306;2022-08-21T13:04:52;4.63;;;2.28;;
56670;SDS011;42545;50.054;8.306;2022-08-21T13:07:23;5.60;;;2.60;;
56670;SDS011;42545;50.054;8.306;2022-08-21T13:09:55;6.20;;;2.78;;
56670;SDS011;42545;50.054;8.306;2022-08-21T13:12:25;5.10;;;2.30;;
56670;SDS011;42545;50.054;8.306;2022-08-21T13:14:55;5.55;;;2.53;;
56670;SDS011;42545;50.054;8.306;2022-08-21T13:17:25;4.75;;;2.20;;
56670;SDS011;42545;50.054;8.306;2022-08-21T13:19:59;3.65;;;2.05;;
56670;SDS011;42545;50.054;8.306;2022-08-21T13:22:29;3.45;;;2.20;;
56670;SDS011;42545;50.054;8.306;2022-08-21T13:25:00;4.57;;;2.40;;
56670;SDS011;42545;50.054;8.306;2022-08-21T13:27:28;3.95;;;2.10;;
56670;SDS011;42545;50.054;8.306;2022-08-21T13:32:27;4.85;;;2.50;;
56670;SDS011;42545;50.054;8.306;2022-08-21T13:35:03;3.88;;;2.30;;
56670;SDS011;42545;50.054;8.306;2022-08-21T13:37:37;5.45;;;2.50;;
56670;SDS011;42545;50.054;8.306;2022-08-21T13:40:07;4.40;;;2.20;;
56670;SDS011;42545;50.054;8.306;2022-08-21T13:42:38;5.30;;;2.15;;
56670;SDS011;42545;50.054;8.306;2022-08-21T13:45:11;4.05;;;2.13;;
56670;SDS011;42545;50.054;8.306;2022-08-21T13:47:40;4.20;;;2.35;;
56670;SDS011;42545;50.054;8.306;2022-08-21T13:50:09;3.67;;;2.30;;
56670;SDS011;42545;50.054;8.306;2022-08-21T13:52:46;4.07;;;2.10;;
56670;SDS011;42545;50.054;8.306;2022-08-21T13:55:17;3.88;;;2.40;;
56670;SDS011;42545;50.054;8.306;2022-08-21T13:57:44;7.82;;;2.50;;
56670;SDS011;42545;50.054;8.306;2022-08-21T14:00:12;5.38;;;2.30;;
56670;SDS011;42545;50.054;8.306;2022-08-21T14:02:50;3.55;;;2.15;;
56670;SDS011;42545;50.054;8.306;2022-08-21T14:05:25;4.55;;;2.10;;
56670;SDS011;42545;50.054;8.306;2022-08-21T14:07:57;4.63;;;2.33;;
56670;SDS011;42545;50.054;8.306;2022-08-21T14:10:31;6.35;;;2.70;;
56670;SDS011;42545;50.054;8.306;2022-08-21T14:13:01;5.20;;;2.20;;
56670;SDS011;42545;50.054;8.306;2022-08-21T14:15:30;2.00;;;1.77;;
56670;SDS011;42545;50.054;8.306;2022-08-21T14:18:08;5.18;;;2.50;;
56670;SDS011;42545;50.054;8.306;2022-08-21T14:20:41;4.60;;;2.22;;
56670;SDS011;42545;50.054;8.306;2022-08-21T14:23:09;4.40;;;2.20;;
56670;SDS011;42545;50.054;8.306;2022-08-21T14:25:37;5.15;;;2.30;;
56670;SDS011;42545;50.054;8.306;2022-08-21T14:28:10;4.25;;;2.10;;
56670;SDS011;42545;50.054;8.306;2022-08-21T14:30:45;6.97;;;2.30;;
56670;SDS011;42545;50.054;8.306;2022-08-21T14:33:20;6.65;;;2.85;;
56670;SDS011;42545;50.054;8.306;2022-08-21T14:35:54;4.28;;;2.50;;
56670;SDS011;42545;50.054;8.306;2022-08-21T14:38:24;5.80;;;2.25;;
56670;SDS011;42545;50.054;8.306;2022-08-21T14:40:59;5.70;;;2.60;;
56670;SDS011;42545;50.054;8.306;2022-08-21T14:43:41;5.57;;;2.20;;
56670;SDS011;42545;50.054;8.306;2022-08-21T14:46:08;5.68;;;2.60;;
56670;SDS011;42545;50.054;8.306;2022-08-21T14:48:36;4.45;;;2.30;;
56670;SDS011;42545;50.054;8.306;2022-08-21T14:51:04;4.53;;;2.03;;
56670;SDS011;42545;50.054;8.306;2022-08-21T14:53:32;3.40;;;2.00;;
56670;SDS011;42545;50.054;8.306;2022-08-21T14:55:59;2.78;;;1.73;;
56670;SDS011;42545;50.054;8.306;2022-08-21T14:58:32;4.13;;;1.88;;
56670;SDS011;42545;50.054;8.306;2022-08-21T15:01:02;5.57;;;2.33;;
56670;SDS011;42545;50.054;8.306;2022-08-21T15:03:30;5.25;;;2.25;;
56670;SDS011;42545;50.054;8.306;2022-08-21T15:05:57;3.55;;;1.88;;
56670;SDS011;42545;50.054;8.306;2022-08-21T15:08:27;3.50;;;1.90;;
56670;SDS011;42545;50.054;8.306;2022-08-21T15:10:54;2.97;;;1.63;;
56670;SDS011;42545;50.054;8.306;2022-08-21T15:13:21;4.22;;;1.73;;
56670;SDS011;42545;50.054;8.306;2022-08-21T15:15:49;3.88;;;1.88;;
56670;SDS011;42545;50.054;8.306;2022-08-21T15:18:18;3.92;;;2.13;;
56670;SDS011;42545;50.054;8.306;2022-08-21T15:20:45;3.55;;;2.00;;
56670;SDS011;42545;50.054;8.306;2022-08-21T15:23:17;2.80;;;1.70;;
56670;SDS011;42545;50.054;8.306;2022-08-21T15:25:47;3.20;;;1.80;;
56670;SDS011;42545;50.054;8.306;2022-08-21T15:28:17;4.40;;;1.90;;
56670;SDS011;42545;50.054;8.306;2022-08-21T15:30:52;2.13;;;1.65;;
56670;SDS011;42545;50.054;8.306;2022-08-21T15:33:22;3.80;;;1.85;;
56670;SDS011;42545;50.054;8.306;2022-08-21T15:35:50;4.35;;;2.30;;
56670;SDS011;42545;50.054;8.306;2022-08-21T15:38:17;6.38;;;1.95;;
56670;SDS011;42545;50.054;8.306;2022-08-21T15:40:47;3.17;;;1.67;;
56670;SDS011;42545;50.054;8.306;2022-08-21T15:43:23;4.88;;;2.33;;